Flight Track Log - Related Links

Times and Time Zones

All times are in EDT time to prevent confusion due to time zone crossing. See the TAM3224 flight status page for this flight to view local times or setup timezone preferences in your user account.

Time Position Orientation Groundspeed Altitude Reporting Facility
EDT Latitude Longitude Course Direction KTS MPH feet Rate Location/Type
Tue 09:18:00 PM -20.8930 -44.7973 33° Northeast  Level Estimated
Tue 09:19:00 PM -20.8189 -44.7480 32° Northeast  Level Estimated
Tue 09:20:00 PM -20.7447 -44.6988 32° Northeast  Level Estimated
Tue 09:21:00 PM -20.6705 -44.6497 32° Northeast  Level Estimated
Tue 09:22:00 PM -20.5963 -44.6006 32° Northeast  Level Estimated
Tue 09:23:00 PM -20.5221 -44.5516 32° Northeast  Level Estimated
Tue 09:24:00 PM -20.4478 -44.5026 32° Northeast  Level Estimated
Tue 09:25:00 PM -20.3736 -44.4536 32° Northeast  Level Estimated
Tue 09:26:00 PM -20.2993 -44.4047 32° Northeast  Level Estimated
Tue 09:27:00 PM -20.2250 -44.3558 32° Northeast  Level Estimated
Tue 09:28:00 PM -20.1507 -44.3070 32° Northeast  Level Estimated
Tue 09:29:00 PM -20.0764 -44.2583 32° Northeast  Level Estimated
Tue 09:30:00 PM -20.0021 -44.2095 32° Northeast  Level Estimated
Tue 09:31:00 PM -19.9278 -44.1609 32° Northeast  Level Estimated
Tue 09:32:00 PM -19.8535 -44.1122 32° Northeast  Level Estimated
Tue 09:33:00 PM -19.7791 -44.0637 32° Northeast  Level Estimated
Tue 09:34:00 PM -19.7047 -44.0151 32° Northeast  Level Estimated
Tue 09:35:00 PM -19.6338 -43.9689 32° Northeast  Level Estimated
Tue 09:36:00 PM -19.6338 -43.9689 90° East  Level Estimated
Tue 09:37:00 PM -19.6338 -43.9689 90° East  Level Estimated
Tue 09:38:00 PM -19.6338 -43.9689 90° East  Level Estimated
Tue 09:39:00 PM -19.6338 -43.9689 90° East  Level Estimated
Tue 09:40:00 PM -19.6338 -43.9689 90° East  Level Estimated
Tue 09:41:00 PM -19.6338 -43.9689 90° East  Level Estimated
Tue 09:42:00 PM -19.6338 -43.9689 90° East  Level Estimated
Tue 09:43:00 PM -19.6338 -43.9689 90° East  Level Estimated
Tue 09:44:00 PM -19.6338 -43.9689 90° East  Level Estimated
Tue 09:45:00 PM -19.6338 -43.9689 90° East  Level Estimated
Tue 09:46:00 PM -19.6338 -43.9689 90° East  Level Estimated
Tue 09:47:00 PM -19.6338 -43.9689 90° East  Level Estimated
Tue 09:48:00 PM -19.6338 -43.9689 90° East  Level Estimated
Tue 09:49:00 PM -19.6338 -43.9689 90° East  Level Estimated
Tue 09:50:00 PM -19.6338 -43.9689 90° East  Level Estimated
Tue 09:51:00 PM -19.6338 -43.9689 90° East  Level Estimated

Login

Don't have an account? Register now (free) for customized features, flight alerts, and more!